Главная страница
METAR-TAF:

METAR-TAF

Аэропорты :

Йёнчёпинг, Швеция

широта: 57-46N, долгота: 014-05E, высота над уровнем моря: 226 м

Текущие метеонаблюдения

Эта сводка был подготовлена 23 минут назад, в 21:20 UTC
Ветер 5 Узел от восточный
Температура 12°C
Влажность 71%
Давление 1015 hPa
Видимость 10 км и более
Нет облачности ниже 1500 м, и нет кучево-дождевой облачности

METAR: ESGJ 252120Z 10005KT CAVOK 12/07 Q1015

Время: 23:43 (21:43 UTC)

Прогноз

Эта сводка был подготовлена 1 час и 13 минут назад, в 20:30 UTC
Прогноз действительный с 25-го 21 UTC до 26-го 01 UTC
Ветер 6 Узел от восточный
Видимость 10 км и более
Нет облачности ниже 1500 м, и нет кучево-дождевой облачности

TAF: ESGJ 252030Z 2521/2601 10006KT CAVOK

Метеонаблюдения и прогнозы для более 4000 аэропортов (сводки METAR и TAF).

Имеющиеся станции представлены на карте желтыми и красными точками.

Чтобы увидеть название станции, наведите на нее мышь.

Затем щелкните, чтобы увидеть метеонаблюдения и метеопрогнозы.

Управление картой: чтобы увеличить масштаб, щелкните зеленые кнопки с черным крестиком; чтобы уменьшить масштаб, щелкните зеленую кнопку с тире; для просмотра соседних карт щелкайте зеленые стрелки.


METAR-TAF: